Time;durP1;ratioP1;P1;durP2;ratioP2;P2;SDS_P1;SDS_P2;PMS_P1;PMS_P2;Temp;Humidity;BMP_temperature;BMP_pressure;BME280_temperature;BME280_humidity;BME280_pressure;Samples;Min_cycle;Max_cycle;Signal;HPM_P1;HPM_P2
2022/04/30 00:01:26;;;;;;;7.22;3.80;;;;;;;8.74;62.38;102783.78;4972011;28;20137;-89
2022/04/30 00:03:52;;;;;;;7.00;4.75;;;;;;;8.71;62.87;102791.69;4973200;28;20438;-88
2022/04/30 00:06:18;;;;;;;8.25;3.97;;;;;;;8.68;62.55;102797.88;4994175;28;20049;-87
2022/04/30 00:08:43;;;;;;;6.50;3.92;;;;;;;8.51;63.35;102771.50;4996895;28;20025;-88
2022/04/30 00:11:08;;;;;;;5.85;4.15;;;;;;;8.52;62.82;102781.16;4974274;28;20607;-87
2022/04/30 00:13:36;;;;;;;6.95;3.92;;;;;;;8.40;63.08;102768.00;4995621;28;20040;-87
2022/04/30 00:16:01;;;;;;;8.00;4.28;;;;;;;8.51;63.16;102794.34;4971468;28;20461;-88
2022/04/30 00:18:26;;;;;;;8.27;3.97;;;;;;;8.43;64.34;102787.31;4976612;28;20030;-89
2022/04/30 00:20:51;;;;;;;5.85;3.60;;;;;;;8.21;63.57;102760.91;4971878;28;20119;-87
2022/04/30 00:23:20;;;;;;;7.25;3.80;;;;;;;8.25;63.68;102781.13;4975226;28;20461;-87
2022/04/30 00:25:49;;;;;;;6.97;3.72;;;;;;;8.28;64.03;102795.19;4975528;28;20069;-89
2022/04/30 00:28:16;;;;;;;7.57;3.60;;;;;;;8.25;64.18;102794.31;4976204;28;20493;-87
2022/04/30 00:30:44;;;;;;;6.68;3.55;;;;;;;8.11;64.04;102768.84;4987291;28;20030;-87
2022/04/30 00:33:10;;;;;;;4.55;3.42;;;;;;;8.18;65.96;102788.16;4974481;28;20030;-87
2022/04/30 00:35:39;;;;;;;6.25;3.90;;;;;;;8.15;64.36;102789.03;4990227;28;20065;-87
2022/04/30 00:38:05;;;;;;;5.93;3.72;;;;;;;8.04;65.32;102779.38;4975045;28;20552;-87
2022/04/30 00:40:31;;;;;;;5.45;3.10;;;;;;;8.06;64.53;102773.19;4973425;28;20046;-87
2022/04/30 00:42:56;;;;;;;5.85;3.88;;;;;;;8.05;64.63;102775.84;4992751;28;20029;-86
2022/04/30 00:45:22;;;;;;;6.38;3.78;;;;;;;8.03;65.25;102769.72;4988602;28;21686;-87
2022/04/30 00:47:47;;;;;;;8.60;3.88;;;;;;;7.96;65.03;102760.91;4973739;28;20407;-87
2022/04/30 00:50:15;;;;;;;7.25;3.65;;;;;;;8.05;65.03;102762.69;4972304;28;20045;-87
2022/04/30 00:52:43;;;;;;;6.60;3.53;;;;;;;7.99;65.51;102766.19;4987875;28;20132;-87
2022/04/30 00:55:09;;;;;;;6.55;3.50;;;;;;;7.89;65.32;102762.66;4972361;28;20026;-87
2022/04/30 00:57:37;;;;;;;6.65;3.58;;;;;;;7.92;66.85;102781.06;4992709;28;20050;-87
2022/04/30 01:00:04;;;;;;;5.60;3.40;;;;;;;7.84;65.62;102766.16;4973922;28;20520;-88
2022/04/30 01:02:33;;;;;;;6.82;3.70;;;;;;;7.83;65.91;102764.38;4989867;28;20034;-87
2022/04/30 01:04:59;;;;;;;6.15;3.35;;;;;;;7.77;65.72;102760.00;4970896;28;20037;-87
2022/04/30 01:07:27;;;;;;;6.30;3.30;;;;;;;7.80;67.62;102767.91;4973161;28;20060;-87
2022/04/30 01:09:54;;;;;;;7.55;3.28;;;;;;;7.84;66.34;102771.44;4991817;28;20057;-89
2022/04/30 01:12:20;;;;;;;6.05;3.40;;;;;;;7.73;65.80;102758.22;4987962;28;20112;-87
2022/04/30 01:14:47;;;;;;;5.07;3.28;;;;;;;7.71;66.94;102775.78;4970866;28;20026;-88
2022/04/30 01:17:12;;;;;;;4.50;2.97;;;;;;;7.51;66.68;102745.91;4973612;28;20393;-87
2022/04/30 01:19:41;;;;;;;8.52;4.00;;;;;;;7.54;66.73;102753.78;4974790;28;20120;-87
2022/04/30 01:22:22;;;;;;;6.90;3.92;;;;;;;7.54;66.57;102756.41;4968347;28;20310;-89
2022/04/30 01:24:49;;;;;;;6.40;3.28;;;;;;;7.56;67.12;102765.22;4987354;28;20053;-89
2022/04/30 01:27:16;;;;;;;5.43;3.38;;;;;;;7.52;68.04;102764.31;4989379;28;20153;-87
2022/04/30 01:29:42;;;;;;;6.82;4.05;;;;;;;7.52;68.09;102769.59;4994935;28;20061;-87
2022/04/30 01:37:38;;;;;;;5.32;3.40;;;;;;;7.54;67.83;102759.94;4996177;28;20089;-87
2022/04/30 01:40:09;;;;;;;10.13;4.00;;;;;;;7.59;67.23;102760.81;4975213;28;20045;-89
2022/04/30 01:42:42;;;;;;;8.43;3.88;;;;;;;7.51;67.26;102746.78;4988928;28;20034;-87
2022/04/30 01:45:09;;;;;;;6.63;2.92;;;;;;;7.55;67.87;102761.69;4970299;28;20122;-87
2022/04/30 01:47:44;;;;;;;5.07;3.42;;;;;;;7.56;67.48;102766.09;4974662;28;20026;-87
2022/04/30 01:50:10;;;;;;;11.32;4.22;;;;;;;7.51;67.76;102752.03;4987031;28;20027;-89
2022/04/30 01:52:36;;;;;;;8.13;4.03;;;;;;;7.41;67.82;102742.34;4974649;28;20389;-88
2022/04/30 01:55:03;;;;;;;6.55;3.72;;;;;;;7.47;67.75;102759.91;4975723;28;20029;-87
2022/04/30 01:57:28;;;;;;;8.90;4.45;;;;;;;7.32;68.66;102737.03;4977511;28;20050;-88
2022/04/30 01:59:58;;;;;;;6.53;4.00;;;;;;;7.30;69.72;102741.44;4975961;28;20573;-87
2022/04/30 02:02:26;;;;;;;6.90;4.07;;;;;;;7.29;69.39;102756.34;4993654;28;20072;-87
2022/04/30 02:04:54;;;;;;;7.72;4.45;;;;;;;7.28;68.76;102758.97;4994431;28;20034;-87
2022/04/30 02:07:20;;;;;;;8.45;4.65;;;;;;;7.30;68.79;102755.47;4997043;28;20382;-87
2022/04/30 02:09:46;;;;;;;7.03;4.15;;;;;;;7.21;69.13;102744.03;4996366;28;20026;-87
2022/04/30 02:12:12;;;;;;;7.35;4.38;;;;;;;7.08;68.98;102741.31;4995452;28;20034;-88
2022/04/30 02:14:40;;;;;;;8.02;4.38;;;;;;;7.15;68.82;102747.50;4991411;28;20037;-89
2022/04/30 02:17:06;;;;;;;7.97;4.40;;;;;;;7.09;68.72;102736.97;4992207;28;20506;-86
2022/04/30 02:20:18;;;;;;;6.60;3.88;;;;;;;7.05;68.98;102725.53;4975655;28;20172;-86
2022/04/30 02:22:21;;;;;;;9.05;4.35;;;;;;;6.90;68.91;102723.72;4991665;28;20299;-89
2022/04/30 02:24:47;;;;;;;10.63;4.93;;;;;;;6.90;69.39;102734.25;4979194;28;20027;-87
2022/04/30 02:27:13;;;;;;;7.30;4.90;;;;;;;6.84;69.95;102731.56;4995406;28;20034;-86
2022/04/30 02:29:38;;;;;;;12.63;4.95;;;;;;;6.77;70.25;102727.16;4997414;28;20023;-88
2022/04/30 02:32:04;;;;;;;8.25;5.13;;;;;;;6.76;71.43;102735.00;4986437;28;20618;-88
2022/04/30 02:34:29;;;;;;;8.27;5.25;;;;;;;6.70;70.78;102724.47;4993852;28;20087;-87
2022/04/30 02:36:55;;;;;;;9.98;5.32;;;;;;;6.64;70.81;102714.78;4979543;28;20342;-87
2022/04/30 02:39:20;;;;;;;11.18;4.97;;;;;;;6.60;71.38;102718.28;4975154;28;20507;-89
2022/04/30 02:41:45;;;;;;;7.18;4.95;;;;;;;6.55;71.27;102706.84;4971213;28;20482;-89
2022/04/30 02:44:11;;;;;;;8.57;4.80;;;;;;;6.60;71.10;102723.53;4979924;28;20038;-87
2022/04/30 02:46:36;;;;;;;9.95;5.03;;;;;;;6.59;70.66;102711.25;4973368;28;20512;-87
2022/04/30 02:49:01;;;;;;;13.65;5.88;;;;;;;6.61;72.04;102718.28;4977445;28;20034;-87
2022/04/30 02:51:27;;;;;;;10.98;5.07;;;;;;;6.51;71.24;102705.94;4994650;28;20034;-88
2022/04/30 02:53:54;;;;;;;8.27;5.03;;;;;;;6.52;72.51;102710.31;4997056;28;20058;-87
2022/04/30 02:56:19;;;;;;;9.70;5.38;;;;;;;6.45;72.03;102712.91;4975140;28;20505;-87
2022/04/30 03:01:29;;;;;;;11.23;5.55;;;;;;;6.45;72.00;102716.44;4989347;28;20088;-88
2022/04/30 03:03:54;;;;;;;9.80;5.75;;;;;;;6.54;72.03;102721.75;4974935;28;21095;-87
2022/04/30 03:06:19;;;;;;;9.02;5.10;;;;;;;6.53;71.82;102724.38;4996533;28;20026;-87
2022/04/30 03:08:49;;;;;;;9.98;5.65;;;;;;;6.47;71.89;102734.81;4981680;28;20576;-87
2022/04/30 03:11:15;;;;;;;9.55;6.00;;;;;;;6.35;71.59;102712.84;4973806;28;20037;-86
2022/04/30 03:13:40;;;;;;;11.30;5.60;;;;;;;6.36;71.74;102722.50;4992889;28;20460;-87
2022/04/30 03:21:42;;;;;;;15.68;5.78;;;;;;;6.30;72.41;102708.44;4990581;28;20125;-87
2022/04/30 03:24:07;;;;;;;12.63;6.20;;;;;;;6.35;73.00;102728.63;4975808;28;20113;-87
2022/04/30 03:26:32;;;;;;;11.68;5.63;;;;;;;6.25;71.83;102708.41;4991724;28;20109;-87
2022/04/30 03:28:58;;;;;;;14.85;6.55;;;;;;;6.28;71.01;102703.16;4976597;28;20509;-86
2022/04/30 03:31:23;;;;;;;12.80;6.05;;;;;;;6.33;71.60;102700.56;4971957;28;20105;-87
2022/04/30 03:33:50;;;;;;;10.50;6.15;;;;;;;6.29;72.73;102683.91;4975899;28;20124;-87
2022/04/30 03:36:18;;;;;;;10.45;6.15;;;;;;;6.39;73.01;102698.00;4994378;28;20503;-86
2022/04/30 03:38:44;;;;;;;13.40;6.15;;;;;;;6.26;72.04;102685.66;4995289;28;20618;-87
2022/04/30 03:41:10;;;;;;;15.95;7.13;;;;;;;6.42;71.95;102705.00;4992931;28;20026;-86
2022/04/30 03:43:35;;;;;;;10.43;5.85;;;;;;;6.45;71.14;102700.66;4972968;28;20030;-87
2022/04/30 03:46:00;;;;;;;13.48;5.95;;;;;;;6.47;71.29;102703.28;4976670;28;20054;-87
2022/04/30 03:48:25;;;;;;;10.38;6.00;;;;;;;6.46;70.92;102685.78;4973774;28;20174;-87
2022/04/30 03:50:52;;;;;;;13.65;6.72;;;;;;;6.55;72.10;102704.22;4980034;28;20021;-87
2022/04/30 03:53:18;;;;;;;12.85;6.68;;;;;;;6.50;72.20;102708.56;4989237;28;20113;-87
2022/04/30 03:55:43;;;;;;;10.65;6.57;;;;;;;6.36;72.30;102692.72;4990598;28;20161;-87
2022/04/30 03:58:09;;;;;;;12.88;6.22;;;;;;;6.38;71.57;102704.09;4971260;28;20605;-88
2022/04/30 04:00:34;;;;;;;10.23;6.68;;;;;;;6.28;72.64;102683.91;4974211;28;20540;-87
2022/04/30 04:02:59;;;;;;;11.15;6.93;;;;;;;6.29;71.66;102688.28;4971438;28;20030;-86
2022/04/30 04:05:26;;;;;;;12.48;6.28;;;;;;;6.38;71.71;102696.22;4977718;28;20037;-87
2022/04/30 04:07:51;;;;;;;11.05;7.35;;;;;;;6.45;71.47;102711.16;4975120;28;20022;-89
2022/04/30 04:10:17;;;;;;;10.88;6.53;;;;;;;6.48;71.31;102710.28;4976775;28;20117;-89
2022/04/30 04:12:42;;;;;;;10.48;6.50;;;;;;;6.40;70.94;102694.50;4974918;28;20077;-87
2022/04/30 04:17:53;;;;;;;14.32;6.88;;;;;;;6.35;71.49;102698.84;4987028;28;20508;-88
2022/04/30 04:20:22;;;;;;;13.98;6.97;;;;;;;6.30;72.13;102700.56;4978706;28;20060;-86
2022/04/30 04:22:47;;;;;;;12.50;6.90;;;;;;;6.34;71.51;102705.84;4974948;28;20590;-87
2022/04/30 04:27:58;;;;;;;13.45;7.18;;;;;;;6.34;71.59;102697.06;4993813;28;20080;-88
2022/04/30 04:30:26;;;;;;;10.43;6.55;;;;;;;6.22;71.36;102678.59;4988371;28;20112;-88
2022/04/30 04:32:52;;;;;;;11.43;6.63;;;;;;;6.29;71.54;102689.16;4973893;28;20037;-86
2022/04/30 04:35:18;;;;;;;12.70;6.78;;;;;;;6.42;71.86;102720.78;4972683;28;20029;-86
2022/04/30 04:37:44;;;;;;;10.77;6.22;;;;;;;6.32;70.89;102707.56;4990575;28;20033;-87
2022/04/30 04:40:11;;;;;;;10.55;6.55;;;;;;;6.28;70.49;102703.16;4976216;28;20038;-89
2022/04/30 04:42:37;;;;;;;10.93;7.00;;;;;;;6.32;70.05;102707.56;4976986;28;20184;-88
2022/04/30 04:45:04;;;;;;;11.32;6.25;;;;;;;6.32;71.30;102709.31;4975891;28;20070;-88
2022/04/30 04:47:29;;;;;;;9.77;6.07;;;;;;;6.30;69.64;102713.69;4988472;28;20495;-87
2022/04/30 04:49:55;;;;;;;9.82;6.75;;;;;;;6.20;69.82;102715.38;4973197;28;20105;-88
2022/04/30 04:52:21;;;;;;;12.05;6.47;;;;;;;6.15;71.55;102719.69;4990138;28;20065;-89
2022/04/30 04:54:47;;;;;;;12.43;6.68;;;;;;;6.13;70.39;102714.44;4973409;28;20065;-87
2022/04/30 04:57:13;;;;;;;10.43;6.95;;;;;;;6.25;70.53;102734.66;4989458;28;20073;-88
2022/04/30 04:59:38;;;;;;;12.85;7.30;;;;;;;6.23;70.40;102725.88;4993959;28;20440;-88
2022/04/30 05:02:04;;;;;;;14.82;6.90;;;;;;;6.11;71.11;102708.28;4987565;28;20041;-88
2022/04/30 05:04:32;;;;;;;12.88;7.18;;;;;;;6.16;71.20;102728.47;4972834;28;20553;-86
2022/04/30 05:06:57;;;;;;;9.80;6.60;;;;;;;6.10;71.14;102730.16;4973364;28;20124;-87
2022/04/30 05:09:23;;;;;;;12.60;6.18;;;;;;;6.13;71.27;102735.44;4994988;28;20109;-87
2022/04/30 05:11:48;;;;;;;11.77;6.97;;;;;;;6.22;70.85;102739.88;4991607;28;20089;-87
2022/04/30 05:14:13;;;;;;;10.77;6.47;;;;;;;6.26;71.03;102732.91;4971613;28;20030;-86
2022/04/30 05:16:39;;;;;;;15.40;6.97;;;;;;;6.36;70.61;102743.50;4969561;28;20030;-86
2022/04/30 05:19:05;;;;;;;12.45;7.28;;;;;;;6.39;72.31;102733.03;4972146;28;20111;-89
2022/04/30 05:21:31;;;;;;;14.70;7.53;;;;;;;6.64;72.24;102765.59;4986811;28;20053;-88
2022/04/30 05:23:57;;;;;;;16.90;7.45;;;;;;;6.74;72.61;102750.78;4990030;28;20108;-86
2022/04/30 05:26:22;;;;;;;14.02;7.43;;;;;;;6.67;72.53;102730.59;4994577;28;20035;-88
2022/04/30 05:28:47;;;;;;;15.57;7.82;;;;;;;6.85;72.76;102748.22;4998676;28;20030;-86
2022/04/30 05:31:13;;;;;;;19.30;8.25;;;;;;;6.88;72.50;102743.84;4989434;28;20436;-86
2022/04/30 05:33:38;;;;;;;11.82;7.47;;;;;;;6.93;73.80;102746.50;4976593;28;20038;-86
2022/04/30 05:36:04;;;;;;;11.90;8.18;;;;;;;6.97;72.41;102736.91;4982594;28;20057;-86
2022/04/30 05:38:30;;;;;;;13.35;8.32;;;;;;;7.08;72.77;102749.22;4977116;28;20026;-87
2022/04/30 05:40:58;;;;;;;13.05;8.05;;;;;;;7.02;72.40;102736.03;4975669;28;20367;-86
2022/04/30 05:43:23;;;;;;;13.38;8.52;;;;;;;7.04;72.48;102734.31;4971918;28;20417;-86
2022/04/30 05:45:48;;;;;;;19.70;8.82;;;;;;;7.09;72.32;102731.72;4994149;28;20037;-86
2022/04/30 05:48:14;;;;;;;18.42;7.82;;;;;;;7.19;72.57;102748.41;4977790;28;20022;-87
2022/04/30 05:50:39;;;;;;;16.67;8.52;;;;;;;7.24;72.22;102752.81;4997767;28;20030;-86
2022/04/30 05:53:05;;;;;;;17.27;8.70;;;;;;;7.25;72.50;102740.53;4991813;28;20034;-87
2022/04/30 05:55:31;;;;;;;16.77;7.95;;;;;;;7.27;73.16;102737.00;4976793;28;20158;-86
2022/04/30 05:57:56;;;;;;;14.88;8.15;;;;;;;7.24;73.04;102723.00;4980038;28;20061;-86
2022/04/30 06:00:22;;;;;;;13.73;8.07;;;;;;;7.45;72.68;102745.84;4994344;28;20050;-86
2022/04/30 06:02:48;;;;;;;13.88;8.30;;;;;;;7.51;71.97;102752.03;4991536;28;20773;-88
2022/04/30 06:05:14;;;;;;;15.00;8.63;;;;;;;7.50;71.99;102742.34;4997473;28;20061;-87
2022/04/30 06:07:40;;;;;;;15.10;8.52;;;;;;;7.55;72.17;102738.00;4975192;28;20049;-86
2022/04/30 06:10:06;;;;;;;14.85;8.73;;;;;;;7.58;73.06;102732.75;4975509;28;20054;-87
2022/04/30 06:12:33;;;;;;;13.70;8.43;;;;;;;7.65;72.45;102734.53;4979286;28;20468;-88
2022/04/30 06:14:58;;;;;;;14.40;8.60;;;;;;;7.83;71.74;102751.22;4991313;28;20045;-87
2022/04/30 06:17:24;;;;;;;12.50;7.85;;;;;;;7.85;71.24;102750.34;4990686;28;20408;-86
2022/04/30 06:19:49;;;;;;;14.73;8.30;;;;;;;7.95;72.31;102753.88;4978224;28;20077;-85
2022/04/30 06:22:15;;;;;;;14.45;8.55;;;;;;;8.00;71.22;102751.25;4976935;28;20018;-88
2022/04/30 06:24:40;;;;;;;16.70;8.43;;;;;;;8.04;71.37;102734.59;4991559;28;20120;-86
2022/04/30 06:27:05;;;;;;;15.70;8.75;;;;;;;8.21;72.00;102747.75;4995613;28;20034;-86
2022/04/30 06:29:31;;;;;;;14.43;7.20;;;;;;;8.21;70.40;102734.56;4991434;28;20440;-86
2022/04/30 06:31:56;;;;;;;13.13;8.05;;;;;;;8.32;72.12;102740.75;4971704;28;20493;-88
2022/04/30 06:34:22;;;;;;;16.85;8.27;;;;;;;8.45;69.87;102763.63;4993217;28;20375;-86
2022/04/30 06:36:48;;;;;;;10.50;7.03;;;;;;;8.54;69.85;102757.47;4972043;28;20497;-86
2022/04/30 06:39:13;;;;;;;14.98;7.45;;;;;;;8.63;69.49;102755.69;4991326;28;20037;-86
2022/04/30 06:41:38;;;;;;;15.90;8.73;;;;;;;8.69;69.47;102737.22;4978134;28;20018;-86
2022/04/30 06:44:04;;;;;;;14.82;8.00;;;;;;;8.78;68.79;102723.13;4995670;28;20103;-86
2022/04/30 06:46:29;;;;;;;14.43;7.97;;;;;;;9.04;68.71;102746.78;4991636;28;20547;-86
2022/04/30 06:48:54;;;;;;;11.43;7.53;;;;;;;9.16;68.41;102752.03;4989949;28;20030;-87
2022/04/30 06:51:20;;;;;;;13.70;8.20;;;;;;;9.32;67.64;102757.25;4992123;28;20038;-86
2022/04/30 06:59:13;;;;;;;12.32;8.73;;;;;;;9.59;66.79;102746.53;4990529;28;20188;-87
2022/04/30 07:04:24;;;;;;;15.40;8.57;;;;;;;9.84;66.33;102749.94;4984487;28;20048;-87
2022/04/30 07:06:52;;;;;;;11.10;7.30;;;;;;;9.92;65.38;102761.31;4969322;28;20239;-87
2022/04/30 07:09:18;;;;;;;13.13;7.88;;;;;;;9.97;65.99;102748.94;4974604;28;20161;-87
2022/04/30 07:11:44;;;;;;;12.75;8.00;;;;;;;10.09;65.59;102761.19;4975351;28;20117;-89
2022/04/30 07:14:10;;;;;;;12.35;7.85;;;;;;;10.05;65.08;102753.31;4985424;28;20034;-88
2022/04/30 07:16:35;;;;;;;15.23;7.97;;;;;;;10.14;64.20;102753.25;4976819;28;20033;-88
2022/04/30 07:19:01;;;;;;;12.32;8.48;;;;;;;10.25;64.47;102766.41;4975362;28;20034;-87
2022/04/30 07:21:28;;;;;;;14.55;7.75;;;;;;;10.33;63.79;102756.66;4980594;28;20073;-87
2022/04/30 07:23:54;;;;;;;13.30;7.50;;;;;;;10.42;63.22;102751.28;4974236;28;20404;-89
2022/04/30 07:26:19;;;;;;;13.80;7.55;;;;;;;10.59;64.30;102754.66;4993122;28;20494;-87
2022/04/30 07:28:46;;;;;;;12.65;7.72;;;;;;;10.68;62.66;102751.06;4992489;28;20113;-88
2022/04/30 07:31:12;;;;;;;13.27;7.15;;;;;;;10.82;63.19;102750.88;4990746;28;20398;-86
2022/04/30 07:33:37;;;;;;;12.13;7.30;;;;;;;11.10;63.33;102752.34;4984210;28;20026;-88
2022/04/30 07:36:04;;;;;;;10.02;7.30;;;;;;;11.42;60.72;102740.47;4976445;28;20275;-88
2022/04/30 07:38:29;;;;;;;9.32;6.80;;;;;;;11.82;60.12;102753.16;4975899;28;20299;-87
2022/04/30 07:40:55;;;;;;;9.52;7.10;;;;;;;12.24;59.29;102751.66;4995898;28;20033;-87
2022/04/30 07:43:20;;;;;;;11.75;7.05;;;;;;;12.75;57.39;102751.63;4990203;28;20030;-87
2022/04/30 07:45:45;;;;;;;11.75;7.22;;;;;;;12.85;55.04;102720.50;4993696;28;20062;-86
2022/04/30 07:48:11;;;;;;;9.32;6.50;;;;;;;13.32;55.03;102747.88;4987327;28;20022;-88
2022/04/30 07:50:37;;;;;;;13.30;6.40;;;;;;;13.43;53.93;102741.44;4985649;28;20022;-87
2022/04/30 07:53:06;;;;;;;10.85;6.45;;;;;;;13.40;53.58;102749.47;4983703;28;20026;-88
2022/04/30 07:55:33;;;;;;;11.68;5.70;;;;;;;13.22;52.52;102739.25;4968130;28;20022;-87
2022/04/30 07:57:59;;;;;;;9.45;5.97;;;;;;;13.31;54.17;102725.75;4976069;28;20038;-88
2022/04/30 08:00:25;;;;;;;8.63;5.20;;;;;;;13.95;53.14;102740.25;4976190;28;20406;-88
2022/04/30 08:02:53;;;;;;;8.98;5.43;;;;;;;13.97;51.35;102725.13;4977159;28;20029;-88
2022/04/30 08:05:19;;;;;;;8.65;5.18;;;;;;;13.87;51.60;102734.25;4970140;28;20036;-89
2022/04/30 08:07:44;;;;;;;7.82;5.78;;;;;;;13.84;52.15;102744.94;4973733;28;20030;-90
2022/04/30 08:10:10;;;;;;;10.93;5.32;;;;;;;13.77;52.21;102722.94;4973144;28;20034;-90
2022/04/30 08:12:35;;;;;;;10.27;5.55;;;;;;;13.67;51.35;102729.41;4991303;28;20062;-89
2022/04/30 08:15:00;;;;;;;9.00;5.40;;;;;;;13.57;51.25;102703.94;4994886;28;20034;-89
2022/04/30 08:17:27;;;;;;;9.27;5.63;;;;;;;13.61;51.32;102739.28;4974615;28;20030;-89
2022/04/30 08:19:53;;;;;;;9.15;5.28;;;;;;;13.71;51.29;102730.22;4967713;28;20593;-90
2022/04/30 08:22:19;;;;;;;5.97;4.93;;;;;;;13.76;51.22;102730.97;4991641;28;20054;-89
2022/04/30 08:24:44;;;;;;;10.20;5.72;;;;;;;13.78;51.38;102734.47;4991101;28;20041;-90
2022/04/30 08:27:09;;;;;;;10.70;5.03;;;;;;;14.01;50.47;102720.63;4970953;28;20034;-89
2022/04/30 08:29:35;;;;;;;9.77;5.78;;;;;;;14.20;49.66;102734.34;4981914;28;20026;-90
2022/04/30 08:32:00;;;;;;;6.07;4.93;;;;;;;13.92;49.63;102721.72;4968256;28;20108;-90
2022/04/30 08:34:25;;;;;;;12.63;5.55;;;;;;;13.70;49.73;102720.47;4971817;28;20030;-90
2022/04/30 08:36:51;;;;;;;6.57;4.70;;;;;;;13.51;50.33;102715.56;4992294;28;20038;-90
2022/04/30 08:39:16;;;;;;;9.32;4.90;;;;;;;13.53;50.78;102712.91;4974103;28;20033;-88
2022/04/30 08:41:43;;;;;;;7.95;5.20;;;;;;;14.01;50.26;102726.81;4994229;28;20168;-89
2022/04/30 08:44:16;;;;;;;8.63;4.82;;;;;;;15.04;48.70;102709.00;4974379;28;20386;-89
2022/04/30 08:46:43;;;;;;;8.25;5.07;;;;;;;15.50;45.80;102710.31;4971008;28;20029;-89
2022/04/30 08:49:09;;;;;;;7.65;4.70;;;;;;;15.45;46.03;102706.91;4976415;28;20026;-89
2022/04/30 08:51:35;;;;;;;8.10;4.63;;;;;;;16.24;44.47;102699.94;4976051;28;20543;-90
2022/04/30 08:54:00;;;;;;;8.65;5.10;;;;;;;16.13;44.60;102708.28;4974129;28;20026;-88
2022/04/30 08:56:26;;;;;;;7.38;5.05;;;;;;;15.55;44.66;102695.03;4992018;28;20170;-91
2022/04/30 08:59:02;;;;;;;7.18;4.57;;;;;;;14.83;46.10;102708.72;4993358;28;20080;-90
2022/04/30 09:01:28;;;;;;;5.00;4.50;;;;;;;14.29;47.46;102699.53;4976188;28;20030;-90
2022/04/30 09:03:54;;;;;;;6.70;4.75;;;;;;;14.11;49.14;102714.16;4972868;28;20553;-89
2022/04/30 09:06:20;;;;;;;9.90;5.07;;;;;;;13.79;50.01;102704.31;4991583;28;20581;-90
2022/04/30 09:08:49;;;;;;;6.43;5.00;;;;;;;13.60;50.47;102706.50;4992612;28;20104;-90
2022/04/30 09:11:15;;;;;;;12.05;5.32;;;;;;;13.41;51.28;102711.38;4970488;28;20509;-90
2022/04/30 09:13:44;;;;;;;9.35;5.38;;;;;;;13.38;51.66;102715.88;4972747;28;20061;-89
2022/04/30 09:16:20;;;;;;;5.05;4.55;;;;;;;13.32;52.14;102716.00;4987869;28;20474;-90
2022/04/30 09:18:46;;;;;;;8.02;5.15;;;;;;;13.13;51.54;102711.06;4969688;28;20036;-89
2022/04/30 09:21:16;;;;;;;6.43;4.85;;;;;;;13.13;51.75;102719.03;4974282;28;20042;-90
2022/04/30 09:23:43;;;;;;;11.80;5.97;;;;;;;13.01;52.04;102713.97;4978705;28;20018;-89
2022/04/30 09:26:10;;;;;;;7.88;5.80;;;;;;;12.96;52.70;102715.81;4989696;28;20329;-89
2022/04/30 09:28:37;;;;;;;8.32;5.10;;;;;;;13.04;52.29;102713.91;4967474;28;20536;-90
2022/04/30 09:31:21;;;;;;;8.23;5.95;;;;;;;13.21;52.08;102709.13;4984539;28;20038;-89
2022/04/30 09:33:56;;;;;;;9.95;5.88;;;;;;;13.37;51.33;102708.81;4988483;28;20056;-91
2022/04/30 09:39:15;;;;;;;7.63;4.53;;;;;;;13.37;49.86;102688.44;4992389;28;20088;-89
2022/04/30 09:41:41;;;;;;;8.65;4.97;;;;;;;13.52;49.31;102684.53;4995429;28;20088;-91
2022/04/30 09:44:08;;;;;;;9.13;5.22;;;;;;;13.70;48.66;102701.84;4991335;28;20037;-91
2022/04/30 09:46:38;;;;;;;7.78;5.65;;;;;;;13.71;48.41;102679.72;4972721;28;20022;-90
2022/04/30 09:54:39;;;;;;;7.32;5.60;;;;;;;14.19;47.60;102688.25;4992953;28;20072;-89
2022/04/30 09:57:07;;;;;;;10.23;4.82;;;;;;;14.35;46.59;102671.88;4974109;28;20443;-90
2022/04/30 09:59:35;;;;;;;7.30;5.53;;;;;;;14.47;46.11;102679.53;4992963;28;20042;-91
2022/04/30 10:02:03;;;;;;;6.80;5.00;;;;;;;14.53;45.13;102666.97;4993632;28;20026;-91
2022/04/30 10:04:29;;;;;;;7.88;5.00;;;;;;;14.65;45.82;102671.09;4995139;28;20439;-90
2022/04/30 10:06:58;;;;;;;7.30;4.80;;;;;;;14.86;44.06;102664.25;4993260;28;20382;-90
2022/04/30 10:09:34;;;;;;;7.13;4.47;;;;;;;15.00;44.25;102678.03;4990370;28;20041;-91
2022/04/30 10:12:13;;;;;;;7.93;4.22;;;;;;;15.12;43.90;102660.84;4991703;28;20053;-90
2022/04/30 10:14:45;;;;;;;7.25;4.35;;;;;;;15.24;43.17;102673.78;4993700;28;20065;-90
2022/04/30 10:17:16;;;;;;;5.65;4.13;;;;;;;15.25;42.47;102666.69;4995545;28;20559;-90
2022/04/30 10:20:07;;;;;;;6.10;4.00;;;;;;;15.38;42.02;102661.81;4979958;28;20428;-91
2022/04/30 10:22:33;;;;;;;4.35;3.25;;;;;;;15.48;41.45;102664.16;4997703;28;20499;-90
2022/04/30 10:24:59;;;;;;;5.70;3.40;;;;;;;15.59;40.88;102634.50;4977797;28;20128;-91
2022/04/30 10:27:37;;;;;;;8.65;4.38;;;;;;;15.74;42.41;102649.16;4976388;28;20105;-90
2022/04/30 10:30:05;;;;;;;5.32;3.83;;;;;;;15.92;40.23;102645.88;4972401;28;20038;-89
2022/04/30 10:32:33;;;;;;;5.82;3.35;;;;;;;16.48;40.43;102660.84;4995379;28;20037;-91
2022/04/30 10:34:59;;;;;;;5.43;3.28;;;;;;;16.82;37.98;102647.13;4994526;28;20056;-89
2022/04/30 10:37:29;;;;;;;5.22;4.03;;;;;;;16.96;38.67;102654.63;4975504;28;20503;-90
2022/04/30 10:40:03;;;;;;;5.32;4.15;;;;;;;17.00;38.46;102645.59;4994918;28;20620;-89
2022/04/30 10:42:39;;;;;;;5.28;3.78;;;;;;;17.05;38.87;102630.25;4977841;28;20038;-90
2022/04/30 10:45:07;;;;;;;6.97;3.78;;;;;;;17.20;37.49;102632.31;4977137;28;20525;-90
2022/04/30 10:47:32;;;;;;;3.63;3.22;;;;;;;17.32;35.76;102628.28;4992030;28;20436;-91
2022/04/30 10:49:58;;;;;;;5.05;2.92;;;;;;;17.37;35.46;102636.13;4997332;28;20038;-92
2022/04/30 10:52:25;;;;;;;5.97;2.80;;;;;;;17.52;35.38;102627.47;4978422;28;20092;-90
2022/04/30 10:54:53;;;;;;;6.50;3.80;;;;;;;17.91;35.49;102632.16;4974887;28;20018;-90
2022/04/30 10:57:19;;;;;;;5.47;3.88;;;;;;;17.97;34.72;102626.53;4996848;28;20084;-92
2022/04/30 10:59:55;;;;;;;5.05;3.42;;;;;;;18.28;33.51;102635.00;4988069;28;20112;-91
2022/04/30 11:02:20;;;;;;;6.22;3.72;;;;;;;18.70;33.40;102599.19;4977681;28;20097;-91
2022/04/30 11:04:45;;;;;;;5.65;3.55;;;;;;;19.02;32.20;102600.34;4999025;28;20038;-92
2022/04/30 11:07:11;;;;;;;6.43;4.30;;;;;;;19.02;34.42;102599.47;4997981;28;20017;-91
2022/04/30 11:09:43;;;;;;;5.03;4.03;;;;;;;19.13;34.98;102590.94;4979175;28;20045;-90
2022/04/30 11:12:13;;;;;;;8.05;4.55;;;;;;;18.69;33.39;102607.28;4993846;28;20410;-91
2022/04/30 11:14:39;;;;;;;4.68;4.25;;;;;;;18.44;35.27;102612.88;4972954;28;20017;-89
2022/04/30 11:17:05;;;;;;;6.43;4.20;;;;;;;18.23;33.64;102607.53;4993268;28;20033;-92
2022/04/30 11:19:30;;;;;;;10.50;4.38;;;;;;;18.03;34.32;102613.75;4992626;28;20041;-91
2022/04/30 11:21:56;;;;;;;7.25;5.05;;;;;;;17.06;34.94;102600.78;4991964;28;20032;-91
2022/04/30 11:24:32;;;;;;;6.80;3.83;;;;;;;17.64;37.06;102610.94;4995435;28;20509;-90
2022/04/30 11:27:05;;;;;;;10.35;4.10;;;;;;;18.64;33.42;102606.59;4994330;28;20429;-91
2022/04/30 11:29:31;;;;;;;5.13;4.40;;;;;;;18.92;31.93;102599.03;4991917;28;20457;-90
2022/04/30 11:31:57;;;;;;;5.70;4.00;;;;;;;18.90;32.87;102594.72;4973152;28;20030;-91
2022/04/30 11:34:25;;;;;;;9.15;4.45;;;;;;;19.03;33.98;102577.97;4972111;28;20448;-91
2022/04/30 11:36:53;;;;;;;5.50;4.20;;;;;;;19.95;32.62;102591.31;4990907;28;20050;-92
2022/04/30 11:39:20;;;;;;;6.63;4.60;;;;;;;20.14;30.48;102567.91;4973332;28;20030;-92
2022/04/30 11:41:51;;;;;;;5.68;3.70;;;;;;;20.37;28.93;102572.06;4991896;28;20026;-91
2022/04/30 11:44:19;;;;;;;3.95;3.45;;;;;;;20.47;29.21;102581.44;4975577;28;20038;-93
2022/04/30 11:46:47;;;;;;;5.32;3.90;;;;;;;20.77;29.29;102576.16;4971532;28;20477;-93
2022/04/30 11:49:20;;;;;;;6.85;3.75;;;;;;;21.01;29.27;102576.63;4992397;28;20050;-91
2022/04/30 11:51:47;;;;;;;7.15;3.85;;;;;;;21.44;28.37;102570.63;4996996;28;20030;-91
2022/04/30 11:54:15;;;;;;;8.85;3.72;;;;;;;21.54;28.03;102575.41;4995588;28;20097;-91
2022/04/30 11:56:42;;;;;;;4.72;3.47;;;;;;;21.65;28.06;102563.97;4992210;28;20072;-92
2022/04/30 11:59:08;;;;;;;7.95;4.20;;;;;;;21.88;27.37;102551.84;4976936;28;20034;-91
2022/04/30 12:01:38;;;;;;;7.05;3.80;;;;;;;21.93;27.90;102556.94;4988254;28;20030;-91